Time;durP1;ratioP1;P1;durP2;ratioP2;P2;SDS_P1;SDS_P2;PMS_P1;PMS_P2;Temp;Humidity;BMP_temperature;BMP_pressure;BME280_temperature;BME280_humidity;BME280_pressure;Samples;Min_cycle;Max_cycle;Signal;HPM_P1;HPM_P2
2022/09/03 00:00:40;;;;;;;1.35;0.75;;;;;;;19.04;69.87;101096.31;20778062;28;20103;-74
2022/09/03 00:10:51;;;;;;;0.88;0.80;;;;;;;19.03;69.63;101086.50;20796084;28;20116;-74
2022/09/03 00:20:58;;;;;;;1.02;0.73;;;;;;;19.03;69.65;101093.75;20695186;28;20050;-74
2022/09/03 00:31:17;;;;;;;1.05;0.75;;;;;;;19.02;69.49;101095.59;20649246;28;20618;-74
2022/09/03 00:41:32;;;;;;;1.23;0.65;;;;;;;19.02;69.36;101086.66;20713742;28;20116;-73
2022/09/03 00:51:43;;;;;;;0.80;0.70;;;;;;;19.01;69.40;101082.25;20700220;28;20058;-74
2022/09/03 01:02:08;;;;;;;1.33;0.73;;;;;;;19.00;69.34;101084.09;20785693;28;20052;-74
2022/09/03 01:12:31;;;;;;;1.05;0.50;;;;;;;18.99;69.35;101079.69;20744731;28;20045;-74
2022/09/03 01:22:56;;;;;;;0.73;0.60;;;;;;;18.98;69.09;101081.50;20700776;28;20054;-73
2022/09/03 01:33:25;;;;;;;0.70;0.50;;;;;;;18.96;69.30;101075.38;20699022;28;20104;-73
2022/09/03 01:43:46;;;;;;;0.88;0.63;;;;;;;18.97;69.17;101071.72;20781330;28;20053;-73
2022/09/03 01:54:15;;;;;;;0.88;0.63;;;;;;;18.95;69.09;101076.38;20697946;28;20042;-74
2022/09/03 02:04:25;;;;;;;1.02;0.50;;;;;;;18.90;69.19;101070.53;20780242;28;20045;-74
2022/09/03 02:14:27;;;;;;;0.68;0.60;;;;;;;18.96;68.92;101079.94;20752856;28;20117;-74
2022/09/03 02:24:29;;;;;;;0.68;0.57;;;;;;;18.95;69.00;101079.06;20695981;28;20494;-74
2022/09/03 02:34:30;;;;;;;0.70;0.60;;;;;;;18.93;68.87;101072.13;20710794;28;20053;-74
2022/09/03 02:44:34;;;;;;;0.52;0.50;;;;;;;18.94;68.96;101077.34;20693247;28;20077;-74
2022/09/03 02:54:38;;;;;;;1.23;0.50;;;;;;;18.78;68.82;101050.06;20711981;28;20050;-74
2022/09/03 03:04:40;;;;;;;0.98;0.60;;;;;;;18.92;68.92;101073.94;20791535;28;20115;-74
2022/09/03 03:14:42;;;;;;;0.40;0.40;;;;;;;18.92;68.65;101073.09;20790788;28;20095;-74
2022/09/03 03:24:44;;;;;;;1.52;0.70;;;;;;;18.92;68.81;101067.72;20791344;28;20389;-74
2022/09/03 03:34:45;;;;;;;0.95;0.57;;;;;;;18.92;68.98;101068.56;20772885;28;20045;-74
2022/09/03 03:44:47;;;;;;;0.70;0.43;;;;;;;18.78;68.52;101044.69;20788808;28;20049;-74
2022/09/03 03:54:49;;;;;;;0.30;0.30;;;;;;;18.83;68.42;101053.22;20805069;28;20140;-73
2022/09/03 04:04:50;;;;;;;0.68;0.43;;;;;;;18.90;68.63;101070.53;20788058;28;20124;-74
2022/09/03 04:14:52;;;;;;;0.47;0.40;;;;;;;18.34;68.39;100973.06;20803377;28;20077;-74
2022/09/03 04:24:54;;;;;;;0.50;0.32;;;;;;;18.80;68.33;101048.09;20778800;28;20045;-73
2022/09/03 04:34:56;;;;;;;0.30;0.30;;;;;;;18.88;68.46;101059.03;20804962;28;20560;-74
2022/09/03 04:44:58;;;;;;;1.00;0.65;;;;;;;18.84;68.15;101054.91;20803112;28;20077;-75
2022/09/03 04:55:00;;;;;;;1.17;0.68;;;;;;;18.87;68.13;101065.41;20785905;28;20442;-73
2022/09/03 05:05:02;;;;;;;0.60;0.40;;;;;;;18.69;67.87;101038.25;20883319;28;20049;-73
2022/09/03 05:15:05;;;;;;;0.60;0.50;;;;;;;18.87;67.63;101064.59;20836909;28;20367;-73
2022/09/03 05:25:07;;;;;;;0.88;0.60;;;;;;;18.83;67.73;101064.00;20720545;28;20077;-73
2022/09/03 05:35:09;;;;;;;3.30;0.93;;;;;;;18.86;67.81;101066.41;20717186;28;20049;-73
2022/09/03 05:45:11;;;;;;;1.20;0.40;;;;;;;18.86;67.75;101068.28;20698094;28;20046;-73
2022/09/03 05:55:13;;;;;;;0.82;0.47;;;;;;;18.85;67.90;101062.00;20715721;28;20061;-73
2022/09/03 06:05:17;;;;;;;0.50;0.50;;;;;;;18.76;67.55;101042.09;20683508;28;20096;-73
2022/09/03 06:15:19;;;;;;;0.43;0.43;;;;;;;18.85;67.62;101062.00;20678774;28;20689;-73
2022/09/03 06:25:20;;;;;;;2.30;0.50;;;;;;;18.86;68.31;101062.88;20681331;28;20054;-73
2022/09/03 06:35:22;;;;;;;2.47;0.60;;;;;;;18.21;68.33;100954.44;20661589;28;20057;-73
2022/09/03 06:45:23;;;;;;;1.98;0.60;;;;;;;18.84;68.54;101063.88;20667451;28;20074;-73
2022/09/03 06:55:25;;;;;;;1.20;0.60;;;;;;;18.85;68.31;101062.00;20657470;28;20038;-74
2022/09/03 07:05:27;;;;;;;1.05;0.50;;;;;;;18.86;68.44;101058.31;20666205;28;20068;-74
2022/09/03 07:15:29;;;;;;;0.85;0.60;;;;;;;18.87;68.68;101069.97;20694554;28;20053;-74
2022/09/03 07:25:31;;;;;;;1.13;0.98;;;;;;;18.86;68.00;101052.94;20689004;28;20049;-74
2022/09/03 07:35:35;;;;;;;1.95;0.70;;;;;;;18.74;68.43;101035.16;20698125;28;20056;-74
2022/09/03 07:45:37;;;;;;;1.17;0.60;;;;;;;18.92;68.72;101057.75;20713154;28;20137;-74
2022/09/03 07:55:39;;;;;;;1.05;0.60;;;;;;;18.95;68.97;101057.47;20710870;28;20088;-74
2022/09/03 08:05:41;;;;;;;1.60;0.60;;;;;;;18.86;69.14;101039.44;20710018;28;20046;-74
2022/09/03 08:15:42;;;;;;;2.08;0.77;;;;;;;19.05;68.98;101059.41;20716912;28;20100;-73
2022/09/03 08:25:44;;;;;;;0.75;0.50;;;;;;;19.08;69.14;101054.56;20724325;28;20061;-75
2022/09/03 08:35:53;;;;;;;0.90;0.60;;;;;;;19.18;69.29;101057.28;20725611;28;22306;-73
2022/09/03 08:45:58;;;;;;;0.70;0.60;;;;;;;19.26;69.12;101054.72;20723456;28;20057;-73
2022/09/03 08:56:11;;;;;;;0.77;0.50;;;;;;;19.32;68.95;101050.59;20723677;28;20050;-73
2022/09/03 09:06:21;;;;;;;1.27;0.70;;;;;;;19.37;68.88;101051.03;20721319;28;20449;-73
2022/09/03 09:16:52;;;;;;;2.10;0.80;;;;;;;19.39;68.84;101045.47;20720297;28;20046;-73
2022/09/03 09:26:59;;;;;;;0.50;0.50;;;;;;;19.39;68.76;101054.44;20717765;28;20058;-74
2022/09/03 09:37:03;;;;;;;0.55;0.50;;;;;;;19.40;68.61;101041.78;20720341;28;20133;-73
2022/09/03 09:47:30;;;;;;;0.40;0.40;;;;;;;19.39;68.65;101038.22;20702657;28;20050;-73
2022/09/03 09:57:32;;;;;;;0.90;0.50;;;;;;;19.38;68.60;101031.13;20780200;28;20103;-74
2022/09/03 10:07:34;;;;;;;0.73;0.65;;;;;;;19.38;68.47;101030.25;20763832;28;20100;-73
2022/09/03 10:17:52;;;;;;;1.10;0.52;;;;;;;19.39;68.17;101026.56;20710013;28;20095;-74
2022/09/03 10:28:00;;;;;;;0.63;0.45;;;;;;;19.40;67.24;101022.88;20716510;28;20176;-73
2022/09/03 10:38:08;;;;;;;1.00;0.60;;;;;;;19.41;67.52;101025.44;20708249;28;20049;-73
2022/09/03 10:48:29;;;;;;;0.77;0.60;;;;;;;19.44;68.07;101023.44;20688264;28;20056;-73
2022/09/03 10:58:43;;;;;;;0.68;0.57;;;;;;;19.43;68.38;101027.97;20710540;28;20050;-73
2022/09/03 11:09:20;;;;;;;1.23;0.60;;;;;;;19.43;68.21;101025.28;20685326;28;20082;-72
2022/09/03 11:19:29;;;;;;;1.13;0.50;;;;;;;19.44;68.28;101013.50;20718615;28;20580;-73
2022/09/03 11:29:41;;;;;;;1.42;0.40;;;;;;;19.44;68.32;101009.94;20650973;28;20123;-73
2022/09/03 11:39:43;;;;;;;1.45;0.57;;;;;;;19.46;68.46;101000.72;20684334;28;20073;-73
2022/09/03 11:49:51;;;;;;;0.60;0.52;;;;;;;19.39;68.50;100988.78;20732488;28;20049;-73
2022/09/03 11:59:52;;;;;;;0.50;0.50;;;;;;;19.48;68.57;101001.44;20684797;28;20056;-73
2022/09/03 12:10:26;;;;;;;0.50;0.50;;;;;;;19.51;68.49;100994.88;20691439;28;20046;-73
2022/09/03 12:20:28;;;;;;;0.73;0.47;;;;;;;19.49;68.36;100986.06;20721792;28;20054;-73
2022/09/03 12:30:29;;;;;;;0.80;0.60;;;;;;;19.50;68.46;100983.25;20702645;28;20057;-73
2022/09/03 12:40:31;;;;;;;0.60;0.40;;;;;;;19.51;68.33;100984.94;20651306;28;20061;-73
2022/09/03 12:50:34;;;;;;;0.68;0.40;;;;;;;19.52;68.02;100964.19;20645838;28;20054;-73
2022/09/03 13:00:39;;;;;;;1.67;0.50;;;;;;;19.53;67.61;100953.25;20681830;28;20127;-73
2022/09/03 13:10:41;;;;;;;3.53;0.55;;;;;;;19.55;67.42;100951.25;20675280;28;20052;-73
2022/09/03 13:20:59;;;;;;;1.30;0.60;;;;;;;19.56;67.39;100947.53;20695623;28;20049;-73
2022/09/03 13:31:29;;;;;;;1.85;0.57;;;;;;;19.54;67.23;100937.88;20703782;28;20054;-73
2022/09/03 13:41:41;;;;;;;0.73;0.52;;;;;;;19.38;67.84;100924.97;20749378;28;20140;-74
2022/09/03 13:51:49;;;;;;;1.73;0.60;;;;;;;19.22;68.09;100902.16;20765347;28;20061;-73
2022/09/03 14:02:16;;;;;;;0.70;0.50;;;;;;;19.40;68.41;100931.94;20674418;28;20053;-73
2022/09/03 14:12:43;;;;;;;0.80;0.60;;;;;;;19.38;68.46;100924.97;20689094;28;20543;-74
2022/09/03 14:22:53;;;;;;;1.38;0.60;;;;;;;19.11;68.71;100889.66;20699482;28;20850;-74
2022/09/03 14:33:11;;;;;;;0.82;0.60;;;;;;;19.34;68.74;100920.88;20700821;28;20050;-73
2022/09/03 14:43:40;;;;;;;0.52;0.50;;;;;;;19.20;68.61;100912.25;20707035;28;20053;-73
2022/09/03 14:54:00;;;;;;;1.23;0.52;;;;;;;19.28;68.36;100920.47;20656304;28;20088;-74
2022/09/03 15:04:08;;;;;;;1.15;0.60;;;;;;;19.31;67.95;100932.81;20681647;28;20054;-74
2022/09/03 15:14:16;;;;;;;1.38;0.70;;;;;;;19.35;67.64;100926.13;20674224;28;20058;-74
2022/09/03 15:24:30;;;;;;;6.68;1.75;;;;;;;19.27;67.53;100910.66;20659902;28;20045;-74
2022/09/03 15:34:31;;;;;;;6.90;1.95;;;;;;;19.44;67.85;100929.78;20768493;28;21489;-75
2022/09/03 15:44:36;;;;;;;5.25;1.55;;;;;;;19.45;67.91;100934.22;20768623;28;20052;-74
2022/09/03 15:54:51;;;;;;;;;;;;;;;19.50;68.17;100937.34;20743594;28;20410;-74
2022/09/03 16:05:23;;;;;;;4.05;1.48;;;;;;;19.49;68.39;100935.63;20664743;28;19929;-74
2022/09/03 16:15:28;;;;;;;4.28;1.20;;;;;;;19.48;68.41;100924.97;20689457;28;20054;-74
2022/09/03 16:25:43;;;;;;;3.55;1.35;;;;;;;19.46;68.98;100935.94;20698940;28;20058;-74
2022/09/03 16:35:55;;;;;;;4.80;1.45;;;;;;;19.44;69.21;100932.50;20675639;28;20069;-73
2022/09/03 16:46:36;;;;;;;3.42;1.10;;;;;;;19.07;69.71;100890.13;20692797;28;20128;-73
2022/09/03 16:56:57;;;;;;;2.35;0.98;;;;;;;19.42;70.38;100943.44;20733185;28;20064;-73
2022/09/03 17:07:04;;;;;;;3.72;1.25;;;;;;;19.42;70.51;100945.28;20746255;28;20104;-74
2022/09/03 17:17:12;;;;;;;3.47;1.23;;;;;;;19.41;70.51;100949.84;20755401;28;20056;-74
2022/09/03 17:27:47;;;;;;;2.63;1.02;;;;;;;19.39;70.87;100945.59;20701164;28;20041;-73
2022/09/03 17:38:07;;;;;;;3.00;1.10;;;;;;;19.41;71.24;100954.38;20741148;28;20124;-73
2022/09/03 17:48:15;;;;;;;2.47;0.90;;;;;;;19.43;71.38;100949.69;20685990;28;20061;-74
2022/09/03 17:58:25;;;;;;;2.20;0.80;;;;;;;19.39;71.85;100950.97;20677879;28;20056;-74
2022/09/03 18:08:40;;;;;;;2.25;0.77;;;;;;;19.45;72.12;100977.44;20722667;28;20066;-74
2022/09/03 18:18:49;;;;;;;2.28;0.70;;;;;;;19.38;73.63;100976.28;20742621;28;20545;-74
2022/09/03 20:14:13;;;;;;;4.40;1.17;;;;;;;19.05;74.91;101062.94;20786049;28;20064;-73
2022/09/03 20:24:49;;;;;;;2.22;0.90;;;;;;;19.31;74.80;101107.41;20790687;28;20057;-73
2022/09/03 20:34:50;;;;;;;;;;;;;;;19.28;74.43;101109.41;20805156;28;20154;-73
2022/09/03 20:45:12;;;;;;;2.78;1.80;;;;;;;19.27;74.46;101134.69;20802825;28;20431;-73
2022/09/03 20:55:27;;;;;;;2.05;0.90;;;;;;;19.25;73.93;101133.97;20802234;28;20049;-73
2022/09/03 21:05:33;;;;;;;2.13;0.80;;;;;;;19.23;73.74;101146.75;20828537;28;20568;-73
2022/09/03 21:15:58;;;;;;;2.05;0.85;;;;;;;19.24;73.65;101156.56;20717186;28;20157;-73
2022/09/03 21:26:13;;;;;;;2.53;0.95;;;;;;;19.23;73.45;101162.97;20781153;28;20152;-76
2022/09/03 21:36:24;;;;;;;1.33;0.70;;;;;;;19.22;73.09;101166.66;20800065;28;20123;-73
2022/09/03 21:47:23;;;;;;;2.25;1.00;;;;;;;19.21;73.11;101178.44;20781939;28;20046;-73
2022/09/03 21:57:39;;;;;;;1.25;1.00;;;;;;;19.20;72.92;101187.53;20525084;28;20061;-73
2022/09/03 22:07:49;;;;;;;;;;;;;;;19.19;72.24;101177.72;20780314;28;20551;-73
2022/09/03 22:18:14;;;;;;;0.75;0.63;;;;;;;19.17;72.04;101182.41;20796338;28;19949;-73
2022/09/03 22:28:24;;;;;;;1.85;1.02;;;;;;;19.16;71.66;101186.09;20777450;28;20073;-73
2022/09/03 22:38:59;;;;;;;1.25;0.70;;;;;;;18.60;71.25;101095.72;20776656;28;20406;-73
2022/09/03 22:49:23;;;;;;;0.63;0.60;;;;;;;19.14;71.01;101180.00;20749261;28;20060;-73
2022/09/03 22:59:56;;;;;;;1.48;0.80;;;;;;;18.88;70.65;101136.44;20791460;28;20453;-73
2022/09/03 23:10:11;;;;;;;1.48;0.82;;;;;;;19.13;70.30;101194.47;20776238;28;20052;-73
2022/09/03 23:20:20;;;;;;;1.15;0.60;;;;;;;19.12;70.10;101204.41;20774115;28;20080;-73
2022/09/03 23:30:21;;;;;;;0.85;0.70;;;;;;;19.08;69.95;101199.44;20758530;28;20681;-73
2022/09/03 23:40:42;;;;;;;1.17;0.70;;;;;;;19.11;69.71;101207.25;20758719;28;20583;-73
2022/09/03 23:51:00;;;;;;;1.25;0.80;;;;;;;19.09;69.78;101209.22;20737154;28;20041;-73
